Nora Springs, Iowa
Current Conditions -  °F | °C
As of 4:53 AM on Saturday 22 Nov 2014 (Local Time) from KMCW Reporting Station
Moderate Fog Moderate Fog  
Wind Chill: 26°   Ceiling: 200
Heat Index: 34°   Visibility: 0.5mi
Dew Point: 34°   Wind: 10mph
Humidity: 100%   Direction: 190°S
Pressure: 29.88"   Gusts: NA
Location:  43.14°N, 93°W
Report Text: KMCW 221053Z AUTO 19009KT 1/2SM FG VV002 01/01 A2988 RMK AO2 SLP126 T00110011
Loading
Personal Weather Stations






























Interactive Weather Map New forecast layout! Learn more

10-Day Weather Forecast

Advertisements
Track Severe Weather on mobile